Nice, France
Current Conditions -  °F | °C
As of 5:30 PM on Tuesday 27 Jan 2015 (Local Time) from LFMN Reporting Station
Broken Clouds Broken Clouds  
Wind Chill: 52°   Ceiling: 21000
Heat Index: 52°   Visibility: 6mi
Dew Point: 37°   Wind: 6mph
Humidity: 58%   Direction: 80°E
Pressure: 29.94"   Gusts: NA
Location:  43.7°N, 7.27°E
Report Text: LFMN 271630Z 08005KT 9999 FEW033 BKN210 11/03 Q1014 NOSIG
Loading
Personal Weather Stations






























Interactive Weather Map New forecast layout! Learn more

10-Day Weather Forecast

Advertisements
Track Severe Weather on mobile